createdAt,value
2019-03-28T00:02:16.897Z,21.30
2019-03-28T00:04:48.360Z,20.83
2019-03-28T00:07:19.397Z,21.23
2019-03-28T00:09:50.452Z,20.20
2019-03-28T00:12:21.506Z,21.87
2019-03-28T00:14:52.572Z,21.17
2019-03-28T00:17:23.806Z,20.33
2019-03-28T00:19:54.976Z,21.60
2019-03-28T00:22:49.201Z,21.73
2019-03-28T00:25:20.396Z,21.80
2019-03-28T00:27:51.474Z,20.87
2019-03-28T00:30:22.970Z,22.37
2019-03-28T00:32:54.050Z,21.47
2019-03-28T00:35:25.103Z,22.50
2019-03-28T00:37:56.178Z,21.87
2019-03-28T00:40:27.560Z,22.23
2019-03-28T00:42:58.648Z,22.47
2019-03-28T00:45:29.606Z,23.00
2019-03-28T00:48:01.228Z,22.20
2019-03-28T00:50:33.146Z,21.67
2019-03-28T00:53:04.410Z,22.80
2019-03-28T00:55:35.502Z,22.77
2019-03-28T00:58:06.915Z,21.93
2019-03-28T01:00:38.029Z,23.20
2019-03-28T01:03:09.082Z,22.20
2019-03-28T01:05:40.141Z,23.50
2019-03-28T01:08:11.291Z,23.53
2019-03-28T01:10:43.721Z,23.97
2019-03-28T01:13:14.768Z,24.10
2019-03-28T01:15:45.872Z,23.97
2019-03-28T01:18:16.878Z,22.27
2019-03-28T01:20:47.997Z,23.70
2019-03-28T01:23:19.289Z,23.30
2019-03-28T01:25:50.371Z,23.40
2019-03-28T01:28:22.506Z,23.03
2019-03-28T01:30:53.950Z,24.00
2019-03-28T01:33:25.028Z,23.53
2019-03-28T01:35:58.062Z,24.90
2019-03-28T01:38:29.050Z,24.80
2019-03-28T01:41:00.162Z,25.20
2019-03-28T01:43:31.194Z,26.37
2019-03-28T01:46:02.156Z,26.17
2019-03-28T01:48:33.300Z,24.13
2019-03-28T01:51:04.456Z,25.77
2019-03-28T01:53:35.771Z,23.80
2019-03-28T01:56:06.887Z,25.47
2019-03-28T01:58:37.985Z,23.27
2019-03-28T02:01:09.554Z,23.80
2019-03-28T02:03:40.924Z,23.37
2019-03-28T02:06:12.010Z,23.93
2019-03-28T02:08:44.084Z,24.13
2019-03-28T02:11:15.143Z,23.53
2019-03-28T02:13:46.222Z,22.53
2019-03-28T02:16:17.244Z,23.70
2019-03-28T02:18:48.224Z,23.20
2019-03-28T02:21:21.564Z,22.63
2019-03-28T02:23:53.339Z,23.60
2019-03-28T02:26:24.428Z,23.90
2019-03-28T02:28:55.426Z,23.67
2019-03-28T02:31:26.551Z,24.90
2019-03-28T02:33:57.581Z,24.53
2019-03-28T02:36:29.682Z,23.83
2019-03-28T02:39:00.617Z,24.57
2019-03-28T02:41:34.822Z,24.80
2019-03-28T02:44:06.129Z,25.60
2019-03-28T02:46:37.309Z,23.70
2019-03-28T02:49:08.362Z,25.60
2019-03-28T02:51:39.418Z,24.23
2019-03-28T02:54:12.047Z,23.43
2019-03-28T02:56:43.130Z,24.13
2019-03-28T02:59:14.162Z,24.70
2019-03-28T03:01:45.284Z,24.30
2019-03-28T03:04:16.567Z,26.20
2019-03-28T03:06:47.737Z,24.93
2019-03-28T03:09:18.789Z,26.03
2019-03-28T03:11:49.940Z,25.97
2019-03-28T03:14:20.960Z,25.50
2019-03-28T03:16:52.095Z,27.13
2019-03-28T03:19:23.205Z,26.50
2019-03-28T03:21:55.396Z,26.87
2019-03-28T03:24:26.458Z,26.47
2019-03-28T03:26:57.503Z,26.20
2019-03-28T03:29:28.532Z,26.07
2019-03-28T03:31:59.572Z,27.23
2019-03-28T03:34:32.956Z,26.60
2019-03-28T03:37:04.470Z,25.70
2019-03-28T03:39:35.539Z,26.17
2019-03-28T03:42:06.818Z,25.73
2019-03-28T03:44:38.971Z,25.87
2019-03-28T03:47:10.031Z,25.87
2019-03-28T03:49:41.529Z,26.57
2019-03-28T03:52:12.595Z,25.13
2019-03-28T03:54:43.736Z,26.57
2019-03-28T03:57:14.802Z,25.10
2019-03-28T03:59:45.924Z,24.97
2019-03-28T04:02:17.974Z,23.97
2019-03-28T04:04:49.115Z,25.50
2019-03-28T04:07:20.194Z,25.50
2019-03-28T04:09:51.343Z,25.10
2019-03-28T04:12:22.426Z,25.00
2019-03-28T04:14:53.641Z,25.40
2019-03-28T04:17:24.691Z,27.37
2019-03-28T04:19:55.842Z,27.40
2019-03-28T04:22:26.934Z,28.37
2019-03-28T04:24:58.003Z,28.80
2019-03-28T04:27:29.155Z,29.40
2019-03-28T04:30:01.230Z,26.97
2019-03-28T04:32:32.393Z,27.80
2019-03-28T04:35:03.528Z,28.17
2019-03-28T04:37:34.774Z,26.67
2019-03-28T04:40:06.870Z,28.43
2019-03-28T04:42:38.009Z,28.30
2019-03-28T04:45:09.132Z,28.17
2019-03-28T04:47:40.295Z,27.37
2019-03-28T04:50:12.144Z,29.17
2019-03-28T04:52:43.173Z,28.63
2019-03-28T04:55:14.270Z,31.13
2019-03-28T04:57:45.418Z,30.77
2019-03-28T05:00:17.156Z,29.93
2019-03-28T05:02:48.284Z,30.30
2019-03-28T05:05:19.526Z,30.00
2019-03-28T05:07:50.748Z,30.10
2019-03-28T05:10:21.844Z,31.20
2019-03-28T05:12:54.901Z,31.87
2019-03-28T05:15:26.672Z,33.80
2019-03-28T05:17:57.715Z,29.67
2019-03-28T05:20:28.850Z,31.93
2019-03-28T05:23:01.371Z,31.97
2019-03-28T05:25:33.774Z,30.83
2019-03-28T05:28:04.896Z,29.40
2019-03-28T05:30:36.071Z,32.83
2019-03-28T05:33:12.122Z,33.20
2019-03-28T05:35:44.415Z,33.27
2019-03-28T05:38:15.592Z,33.47
2019-03-28T05:40:46.695Z,31.57
2019-03-28T05:43:17.770Z,33.30
2019-03-28T05:45:48.899Z,32.43
2019-03-28T05:48:20.010Z,35.30
2019-03-28T05:50:51.702Z,32.93
2019-03-28T05:53:22.712Z,33.57
2019-03-28T05:55:53.853Z,31.70
2019-03-28T05:58:25.259Z,31.87
2019-03-28T06:00:57.738Z,32.60
2019-03-28T06:03:28.843Z,33.00
2019-03-28T06:06:00.297Z,32.57
2019-03-28T06:08:31.500Z,32.13
2019-03-28T06:11:02.633Z,31.00
2019-03-28T06:13:33.642Z,32.80
2019-03-28T06:16:04.709Z,30.93
2019-03-28T06:18:35.804Z,31.33
2019-03-28T06:21:06.821Z,33.23
2019-03-28T06:23:37.889Z,33.13
2019-03-28T06:26:08.953Z,33.37
2019-03-28T06:28:39.979Z,35.67
2019-03-28T06:31:11.013Z,34.57
2019-03-28T06:33:42.075Z,35.63
2019-03-28T06:36:13.096Z,36.07
2019-03-28T06:38:44.121Z,41.13
2019-03-28T06:41:15.251Z,54.67
2019-03-28T06:43:46.428Z,74.27
2019-03-28T06:46:17.454Z,87.73
2019-03-28T06:48:48.626Z,99.33
2019-03-28T06:51:19.749Z,99.77
2019-03-28T06:53:50.849Z,118.47
2019-03-28T06:56:21.976Z,84.33
2019-03-28T06:58:53.034Z,86.63
2019-03-28T07:01:25.142Z,90.73
2019-03-28T07:03:56.211Z,86.70
2019-03-28T07:06:27.257Z,50.43
2019-03-28T07:08:58.618Z,43.87
2019-03-28T07:11:29.768Z,36.03
2019-03-28T07:14:00.929Z,29.83
2019-03-28T07:16:32.023Z,29.17
2019-03-28T07:19:03.095Z,27.67
2019-03-28T07:21:34.165Z,25.73
2019-03-28T07:24:05.237Z,25.37
2019-03-28T07:26:36.302Z,25.27
2019-03-28T07:29:07.361Z,28.23
2019-03-28T07:31:38.625Z,26.40
2019-03-28T07:34:09.623Z,24.80
2019-03-28T07:36:40.632Z,26.33
2019-03-28T07:39:11.727Z,26.50
2019-03-28T07:41:42.821Z,22.33
2019-03-28T07:44:13.891Z,22.57
2019-03-28T07:46:47.464Z,22.57
2019-03-28T07:49:17.696Z,77.33
2019-03-28T07:51:48.970Z,74.57
2019-03-28T07:54:20.049Z,55.43
2019-03-28T07:56:51.155Z,61.47
2019-03-28T07:59:22.224Z,76.90
2019-03-28T08:01:53.339Z,71.73
2019-03-28T08:04:25.446Z,62.23
2019-03-28T08:06:56.407Z,54.90
2019-03-28T08:09:36.669Z,26.93
2019-03-28T08:12:00.782Z,23.33
2019-03-28T08:14:31.881Z,23.33
2019-03-28T08:17:02.930Z,21.47
2019-03-28T08:19:34.074Z,22.70
2019-03-28T08:22:05.241Z,47.33
2019-03-28T08:24:36.392Z,47.43
2019-03-28T08:27:08.594Z,47.07
2019-03-28T08:29:39.710Z,48.50
2019-03-28T08:32:14.635Z,39.40
2019-03-28T08:34:45.738Z,39.37
2019-03-28T08:37:16.893Z,41.50
2019-03-28T08:39:48.010Z,42.50
2019-03-28T08:42:19.652Z,46.00
2019-03-28T08:44:51.011Z,27.33
2019-03-28T08:47:23.150Z,20.73
2019-03-28T08:49:54.173Z,38.27
2019-03-28T08:52:25.327Z,61.47
2019-03-28T08:54:56.436Z,50.70
2019-03-28T08:57:27.441Z,53.63
2019-03-28T08:59:58.481Z,52.90
2019-03-28T09:02:29.608Z,58.77
2019-03-28T09:05:00.707Z,41.80
2019-03-28T09:07:31.793Z,29.77
2019-03-28T09:10:03.157Z,34.83
2019-03-28T09:12:35.275Z,64.67
2019-03-28T09:15:08.540Z,53.47
2019-03-28T09:17:39.593Z,40.00
2019-03-28T09:20:11.348Z,27.43
2019-03-28T09:22:42.494Z,26.90
2019-03-28T09:25:13.786Z,24.10
2019-03-28T09:27:44.786Z,27.83
2019-03-28T09:30:17.592Z,23.47
2019-03-28T09:32:48.657Z,22.27
2019-03-28T09:35:29.558Z,20.93
2019-03-28T09:38:00.621Z,18.00
2019-03-28T09:40:31.763Z,14.93
2019-03-28T09:43:03.379Z,14.53
2019-03-28T09:45:34.778Z,14.97
2019-03-28T09:48:06.008Z,14.77
2019-03-28T09:50:37.118Z,15.90
2019-03-28T09:53:08.159Z,13.83
2019-03-28T09:55:39.400Z,13.80
2019-03-28T09:58:10.539Z,13.97
2019-03-28T10:00:41.681Z,13.73
2019-03-28T10:03:12.745Z,13.30
2019-03-28T10:05:43.862Z,13.43
2019-03-28T10:08:16.023Z,13.40
2019-03-28T10:10:48.726Z,14.17
2019-03-28T10:13:20.075Z,14.00
2019-03-28T10:15:51.092Z,16.03
2019-03-28T10:18:22.106Z,14.47
2019-03-28T10:20:53.164Z,14.23
2019-03-28T10:23:24.295Z,20.77
2019-03-28T10:25:55.350Z,17.53
2019-03-28T10:28:26.357Z,8.53
2019-03-28T10:30:57.550Z,9.90
2019-03-28T10:33:28.595Z,9.23
2019-03-28T10:36:03.277Z,8.90
2019-03-28T10:38:34.317Z,7.93
2019-03-28T10:41:05.441Z,8.67
2019-03-28T10:43:36.606Z,8.27
2019-03-28T10:46:07.728Z,6.73
2019-03-28T10:48:38.822Z,8.73
2019-03-28T10:51:09.862Z,9.70
2019-03-28T10:53:40.900Z,9.57
2019-03-28T10:56:21.438Z,8.27
2019-03-28T10:58:44.802Z,7.70
2019-03-28T11:01:18.197Z,8.20
2019-03-28T11:03:48.983Z,6.30
2019-03-28T11:06:20.092Z,9.60
2019-03-28T11:08:51.177Z,5.87
2019-03-28T11:11:22.592Z,6.47
2019-03-28T11:13:53.849Z,6.70
2019-03-28T11:16:24.858Z,7.10
2019-03-28T11:18:55.957Z,6.70
2019-03-28T11:21:26.951Z,4.97
2019-03-28T11:23:58.579Z,7.13
2019-03-28T11:26:29.765Z,4.20
2019-03-28T11:29:01.187Z,4.20
2019-03-28T11:31:45.216Z,5.70
2019-03-28T11:34:05.170Z,6.87
2019-03-28T11:36:36.194Z,7.00
2019-03-28T11:39:09.931Z,7.13
2019-03-28T11:41:40.978Z,7.43
2019-03-28T11:44:12.119Z,9.37
2019-03-28T11:46:43.223Z,5.67
2019-03-28T11:49:14.318Z,5.90
2019-03-28T11:51:45.394Z,5.40
2019-03-28T11:54:16.424Z,5.47
2019-03-28T11:56:47.422Z,5.30
2019-03-28T11:59:18.566Z,5.83
2019-03-28T12:01:59.323Z,6.30
2019-03-28T12:04:22.365Z,6.30
2019-03-28T12:06:53.471Z,6.67
2019-03-28T12:09:24.626Z,7.50
2019-03-28T12:11:55.707Z,7.33
2019-03-28T12:14:26.782Z,9.33
2019-03-28T12:16:57.843Z,7.70
2019-03-28T12:19:28.944Z,9.27
2019-03-28T12:22:00.455Z,8.47
2019-03-28T12:24:31.598Z,8.07
2019-03-28T12:27:02.739Z,8.37
2019-03-28T12:29:35.799Z,8.33
2019-03-28T12:32:13.822Z,7.87
2019-03-28T12:34:39.854Z,8.10
2019-03-28T12:37:11.070Z,8.27
2019-03-28T12:39:43.128Z,8.30
2019-03-28T12:42:14.162Z,9.17
2019-03-28T12:44:56.252Z,8.50
2019-03-28T12:47:17.879Z,8.00
2019-03-28T12:49:48.904Z,7.00
2019-03-28T12:52:19.999Z,6.93
2019-03-28T12:54:51.178Z,7.07
2019-03-28T12:57:22.489Z,8.00
2019-03-28T12:59:53.880Z,8.60
2019-03-28T13:02:31.379Z,8.27
2019-03-28T13:04:57.862Z,9.17
2019-03-28T13:07:28.935Z,8.60
2019-03-28T13:10:00.079Z,8.30
2019-03-28T13:12:31.194Z,8.27
2019-03-28T13:15:02.234Z,8.43
2019-03-28T13:17:33.556Z,7.83
2019-03-28T13:20:05.034Z,7.50
2019-03-28T13:22:36.164Z,7.43
2019-03-28T13:25:07.781Z,6.97
2019-03-28T13:27:38.825Z,7.20
2019-03-28T13:30:11.840Z,7.00
2019-03-28T13:32:42.955Z,6.17
2019-03-28T13:35:14.109Z,5.40
2019-03-28T13:37:45.322Z,5.80
2019-03-28T13:40:16.446Z,5.43
2019-03-28T13:42:47.490Z,6.13
2019-03-28T13:45:19.912Z,5.07
2019-03-28T13:47:54.109Z,5.10
2019-03-28T13:50:23.968Z,5.50
2019-03-28T13:52:55.091Z,5.43
2019-03-28T13:55:26.175Z,5.70
2019-03-28T13:57:57.506Z,5.53
2019-03-28T14:00:33.366Z,5.37
2019-03-28T14:03:04.783Z,5.83
2019-03-28T14:05:35.870Z,5.97
2019-03-28T14:08:07.056Z,6.37
2019-03-28T14:10:38.246Z,5.87
2019-03-28T14:13:10.547Z,5.77
2019-03-28T14:15:43.019Z,6.00
2019-03-28T14:18:14.208Z,6.53
2019-03-28T14:20:45.387Z,7.00
2019-03-28T14:23:16.473Z,7.73
2019-03-28T14:25:47.643Z,8.30
2019-03-28T14:28:19.119Z,7.80
2019-03-28T14:30:50.842Z,8.30
2019-03-28T14:33:21.890Z,9.03
2019-03-28T14:35:53.994Z,8.80
2019-03-28T14:38:25.841Z,8.23
2019-03-28T14:40:58.437Z,9.20
2019-03-28T14:43:29.664Z,8.30
2019-03-28T14:46:00.772Z,7.87
2019-03-28T14:48:31.931Z,8.50
2019-03-28T14:51:03.149Z,9.47
2019-03-28T14:53:34.200Z,9.83
2019-03-28T14:56:05.781Z,7.23
2019-03-28T14:58:38.217Z,8.20
2019-03-28T15:01:09.448Z,9.47
2019-03-28T15:03:40.616Z,8.37
2019-03-28T15:06:11.686Z,9.57
2019-03-28T15:08:43.493Z,8.10
2019-03-28T15:11:17.017Z,8.00
2019-03-28T15:13:48.219Z,9.73
2019-03-28T15:16:19.340Z,8.20
2019-03-28T15:18:50.417Z,8.93
2019-03-28T15:21:21.622Z,8.97
2019-03-28T15:23:52.647Z,9.57
2019-03-28T15:26:23.871Z,8.40
2019-03-28T15:28:55.049Z,8.93
2019-03-28T15:31:26.186Z,9.93
2019-03-28T15:33:57.241Z,15.33
2019-03-28T15:36:28.301Z,11.80
2019-03-28T15:38:59.501Z,11.00
2019-03-28T15:41:30.633Z,10.77
2019-03-28T15:44:02.013Z,11.80
2019-03-28T15:46:33.134Z,13.00
2019-03-28T15:49:04.215Z,13.87
2019-03-28T15:51:35.393Z,12.90
2019-03-28T15:54:06.579Z,12.73
2019-03-28T15:56:37.725Z,11.97
2019-03-28T15:59:08.855Z,13.20
2019-03-28T16:01:40.064Z,12.27
2019-03-28T16:04:11.248Z,14.43
2019-03-28T16:06:42.431Z,20.03
2019-03-28T16:09:13.466Z,34.30
2019-03-28T16:11:44.578Z,42.07
2019-03-28T16:14:15.885Z,50.90
2019-03-28T16:16:47.153Z,43.10
2019-03-28T16:19:18.295Z,45.97
2019-03-28T16:21:49.485Z,38.70
2019-03-28T16:24:20.620Z,32.13
2019-03-28T16:26:51.784Z,24.20
2019-03-28T16:29:22.993Z,18.73
2019-03-28T16:31:54.083Z,17.77
2019-03-28T16:34:25.290Z,20.63
2019-03-28T16:36:58.313Z,17.17
2019-03-28T16:39:29.537Z,15.13
2019-03-28T16:42:00.591Z,15.00
2019-03-28T16:44:31.771Z,12.40
2019-03-28T16:47:02.850Z,12.77
2019-03-28T16:49:33.914Z,14.80
2019-03-28T16:52:04.958Z,15.83
2019-03-28T16:54:36.207Z,13.23
2019-03-28T16:57:07.319Z,14.67
2019-03-28T16:59:38.394Z,13.77
2019-03-28T17:02:09.648Z,15.53
2019-03-28T17:04:40.777Z,16.77
2019-03-28T17:07:12.003Z,18.90
2019-03-28T17:09:43.164Z,19.47
2019-03-28T17:12:15.603Z,20.23
2019-03-28T17:14:46.960Z,20.30
2019-03-28T17:17:18.245Z,20.67
2019-03-28T17:19:50.502Z,20.73
2019-03-28T17:22:21.627Z,21.93
2019-03-28T17:24:53.633Z,20.77
2019-03-28T17:27:25.700Z,23.07
2019-03-28T17:29:56.792Z,23.83
2019-03-28T17:32:27.923Z,18.77
2019-03-28T17:34:59.054Z,22.23
2019-03-28T17:37:30.171Z,19.70
2019-03-28T17:40:01.381Z,18.03
2019-03-28T17:42:33.444Z,15.80
2019-03-28T17:45:04.601Z,19.50
2019-03-28T17:47:36.470Z,26.43
2019-03-28T17:50:08.595Z,38.13
2019-03-28T17:52:44.729Z,40.60
2019-03-28T17:55:15.995Z,45.43
2019-03-28T17:57:47.201Z,40.90
2019-03-28T18:00:18.653Z,30.03
2019-03-28T18:02:51.143Z,34.00
2019-03-28T18:05:23.379Z,31.30
2019-03-28T18:07:54.625Z,31.10
2019-03-28T18:10:25.886Z,29.57
2019-03-28T18:12:57.014Z,35.97
2019-03-28T18:15:28.075Z,29.50
2019-03-28T18:17:59.266Z,33.93
2019-03-28T18:20:30.690Z,34.13
2019-03-28T18:23:01.813Z,42.43
2019-03-28T18:25:33.720Z,43.17
2019-03-28T18:28:04.887Z,30.80
2019-03-28T18:30:37.448Z,30.17
2019-03-28T18:33:10.966Z,24.30
2019-03-28T18:35:42.702Z,28.50
2019-03-28T18:38:14.894Z,28.87
2019-03-28T18:40:46.877Z,25.43
2019-03-28T18:43:18.901Z,24.57
2019-03-28T18:45:50.224Z,25.00
2019-03-28T18:48:29.165Z,21.93
2019-03-28T18:50:54.325Z,23.40
2019-03-28T18:53:25.841Z,25.50
2019-03-28T18:55:57.112Z,23.47
2019-03-28T18:58:28.312Z,24.43
2019-03-28T19:00:59.505Z,23.37
2019-03-28T19:03:30.818Z,24.10
2019-03-28T19:06:01.944Z,23.10
2019-03-28T19:08:33.170Z,23.07
2019-03-28T19:11:04.261Z,22.00
2019-03-28T19:13:35.415Z,24.47
2019-03-28T19:16:07.093Z,22.40
2019-03-28T19:18:39.435Z,24.87
2019-03-28T19:21:10.531Z,23.53
2019-03-28T19:23:43.539Z,25.60
2019-03-28T19:26:16.826Z,26.10
2019-03-28T19:28:48.073Z,27.50
2019-03-28T19:31:19.453Z,30.00
2019-03-28T19:33:50.677Z,30.63
2019-03-28T19:36:22.654Z,27.67
2019-03-28T19:38:54.096Z,25.37
2019-03-28T19:41:25.270Z,24.80
2019-03-28T19:43:56.957Z,26.00
2019-03-28T19:46:28.433Z,23.77
2019-03-28T19:48:59.552Z,23.90
2019-03-28T19:51:30.831Z,24.70
2019-03-28T19:54:02.067Z,23.23
2019-03-28T19:56:33.295Z,25.53
2019-03-28T19:59:05.991Z,28.20
2019-03-28T20:01:37.213Z,34.03
2019-03-28T20:04:08.365Z,37.47
2019-03-28T20:06:39.461Z,37.03
2019-03-28T20:09:16.038Z,38.70
2019-03-28T20:11:43.188Z,38.40
2019-03-28T20:14:14.286Z,39.37
2019-03-28T20:16:45.292Z,39.10
2019-03-28T20:19:17.915Z,39.10
2019-03-28T20:21:49.085Z,41.67
2019-03-28T20:24:21.955Z,43.93
2019-03-28T20:26:54.332Z,42.40
2019-03-28T20:29:26.683Z,44.83
2019-03-28T20:31:57.817Z,37.77
2019-03-28T20:34:29.326Z,33.50
2019-03-28T20:37:01.177Z,33.83
2019-03-28T20:39:32.941Z,30.87
2019-03-28T20:42:04.594Z,31.43
2019-03-28T20:44:35.788Z,32.10
2019-03-28T20:47:10.017Z,28.67
2019-03-28T20:49:41.144Z,29.90
2019-03-28T20:52:12.242Z,30.40
2019-03-28T20:54:46.627Z,31.07
2019-03-28T20:57:17.811Z,30.03
2019-03-28T20:59:48.925Z,29.20
2019-03-28T21:02:20.066Z,29.27
2019-03-28T21:04:51.262Z,30.70
2019-03-28T21:07:23.218Z,31.03
2019-03-28T21:09:55.906Z,30.77
2019-03-28T21:12:27.009Z,31.60
2019-03-28T21:14:58.200Z,32.20
2019-03-28T21:17:32.017Z,33.93
2019-03-28T21:20:02.275Z,33.23
2019-03-28T21:22:33.700Z,37.77
2019-03-28T21:25:05.178Z,43.90
2019-03-28T21:27:36.267Z,47.23
2019-03-28T21:30:08.041Z,52.47
2019-03-28T21:32:39.302Z,53.37
2019-03-28T21:35:12.969Z,52.97
2019-03-28T21:37:44.138Z,52.77
2019-03-28T21:40:15.260Z,55.10
2019-03-28T21:42:46.416Z,56.07
2019-03-28T21:45:17.560Z,57.07
2019-03-28T21:47:48.676Z,53.67
2019-03-28T21:50:19.736Z,48.90
2019-03-28T21:52:50.784Z,46.63
2019-03-28T21:55:21.876Z,42.73
2019-03-28T21:57:54.201Z,41.37
2019-03-28T22:00:25.273Z,43.40
2019-03-28T22:02:56.346Z,41.93
2019-03-28T22:05:28.826Z,41.63
2019-03-28T22:08:00.288Z,40.77
2019-03-28T22:10:31.440Z,40.73
2019-03-28T22:13:02.585Z,38.40
2019-03-28T22:15:33.611Z,40.73
2019-03-28T22:18:04.614Z,39.90
2019-03-28T22:20:35.652Z,39.87
2019-03-28T22:23:06.779Z,43.37
2019-03-28T22:25:39.013Z,48.27
2019-03-28T22:28:10.187Z,46.47
2019-03-28T22:30:41.260Z,47.53
2019-03-28T22:33:12.311Z,41.83
2019-03-28T22:35:43.978Z,41.17
2019-03-28T22:38:15.104Z,43.90
2019-03-28T22:40:46.156Z,47.97
2019-03-28T22:43:17.229Z,51.00
2019-03-28T22:45:48.311Z,47.80
2019-03-28T22:48:19.403Z,45.97
2019-03-28T22:50:50.398Z,57.90
2019-03-28T22:53:21.466Z,54.60
2019-03-28T22:55:52.567Z,57.90
2019-03-28T22:58:23.658Z,57.10
2019-03-28T23:00:55.453Z,56.57
2019-03-28T23:03:28.317Z,54.20
2019-03-28T23:05:59.436Z,53.93
2019-03-28T23:08:30.517Z,51.10
2019-03-28T23:11:01.547Z,50.77
2019-03-28T23:13:32.699Z,50.03
2019-03-28T23:16:03.786Z,47.53
2019-03-28T23:18:34.840Z,47.27
2019-03-28T23:21:07.710Z,50.33
2019-03-28T23:23:38.738Z,51.10
2019-03-28T23:26:09.910Z,51.47
2019-03-28T23:28:40.949Z,57.90
2019-03-28T23:31:12.108Z,59.83
2019-03-28T23:33:43.173Z,62.73
2019-03-28T23:36:15.322Z,61.43
2019-03-28T23:38:46.499Z,65.10
2019-03-28T23:41:17.594Z,66.23
2019-03-28T23:43:48.848Z,64.60
2019-03-28T23:46:20.948Z,63.43
2019-03-28T23:48:52.438Z,63.13
2019-03-28T23:51:24.797Z,62.87
2019-03-28T23:53:56.138Z,64.23
2019-03-28T23:56:27.188Z,63.13
2019-03-28T23:58:58.304Z,63.20
